Time;durP1;ratioP1;P1;durP2;ratioP2;P2;SDS_P1;SDS_P2;PMS_P1;PMS_P2;Temp;Humidity;BMP_temperature;BMP_pressure;BME280_temperature;BME280_humidity;BME280_pressure;Samples;Min_cycle;Max_cycle;Signal;HPM_P1;HPM_P2
2023/04/19 00:02:03;;;;;;;4.33;2.87;;;8.90;99.90;;;;;;5029302;28;20525;-52
2023/04/19 00:04:30;;;;;;;5.33;3.17;;;8.80;99.90;;;;;;5030247;28;20561;-52
2023/04/19 00:06:57;;;;;;;3.40;2.70;;;9.00;99.90;;;;;;5035466;28;20477;-52
2023/04/19 00:09:24;;;;;;;3.20;2.80;;;9.10;99.90;;;;;;5040569;28;20467;-52
2023/04/19 00:11:51;;;;;;;2.43;2.23;;;9.20;99.90;;;;;;5030489;28;20450;-52
2023/04/19 00:14:18;;;;;;;4.00;2.90;;;9.30;99.90;;;;;;5029881;28;20475;-52
2023/04/19 00:16:47;;;;;;;3.77;3.47;;;9.30;99.90;;;;;;5030230;28;20954;-52
2023/04/19 00:19:14;;;;;;;3.63;2.60;;;9.20;99.90;;;;;;5030451;28;20550;-52
2023/04/19 00:21:41;;;;;;;4.93;3.97;;;8.90;99.90;;;;;;5030661;28;20438;-54
2023/04/19 00:24:08;;;;;;;3.83;3.53;;;8.80;99.90;;;;;;5030301;28;20470;-52
2023/04/19 00:26:35;;;;;;;4.83;3.90;;;8.90;99.90;;;;;;5030153;28;20486;-54
2023/04/19 00:29:01;;;;;;;5.27;4.37;;;8.90;99.90;;;;;;5035208;28;20912;-52
2023/04/19 00:31:28;;;;;;;3.20;2.90;;;8.80;99.90;;;;;;5050262;28;20472;-52
2023/04/19 00:33:57;;;;;;;4.03;3.63;;;8.90;99.90;;;;;;5050032;28;20434;-52
2023/04/19 00:36:25;;;;;;;3.40;3.10;;;8.80;99.90;;;;;;5050254;28;20450;-52
2023/04/19 00:38:52;;;;;;;5.90;4.03;;;8.80;99.90;;;;;;5052298;28;20497;-52
2023/04/19 00:41:19;;;;;;;3.47;3.17;;;8.70;99.90;;;;;;5053644;28;20477;-52
2023/04/19 00:43:46;;;;;;;2.60;2.40;;;8.70;99.90;;;;;;5053322;28;20473;-52
2023/04/19 00:46:14;;;;;;;2.83;2.63;;;8.60;99.90;;;;;;5053351;28;20477;-52
2023/04/19 00:48:41;;;;;;;5.10;3.77;;;8.60;99.90;;;;;;5037165;28;20561;-52
2023/04/19 00:51:10;;;;;;;3.93;3.40;;;8.50;99.90;;;;;;5033812;28;20481;-52
2023/04/19 00:53:38;;;;;;;3.57;3.13;;;8.60;99.90;;;;;;5033755;28;20529;-52
2023/04/19 00:56:06;;;;;;;5.93;3.37;;;8.80;99.90;;;;;;5033470;28;20538;-53
2023/04/19 00:58:33;;;;;;;4.60;3.73;;;8.90;99.90;;;;;;5033245;28;21016;-52
2023/04/19 01:01:00;;;;;;;3.63;3.23;;;9.00;99.90;;;;;;5033697;28;20474;-52
2023/04/19 01:03:28;;;;;;;4.33;3.47;;;9.10;99.90;;;;;;5032986;28;20502;-53
2023/04/19 01:05:55;;;;;;;3.83;3.40;;;9.20;99.90;;;;;;5033464;28;20445;-54
2023/04/19 01:08:24;;;;;;;4.33;3.93;;;9.20;99.90;;;;;;5050910;28;20471;-52
2023/04/19 01:10:51;;;;;;;5.10;3.57;;;9.20;99.90;;;;;;5053091;28;20460;-54
2023/04/19 01:13:18;;;;;;;3.90;3.20;;;9.20;99.90;;;;;;5052642;28;20496;-52
2023/04/19 01:15:44;;;;;;;5.60;4.30;;;9.30;99.90;;;;;;5052990;28;20568;-51
2023/04/19 01:18:12;;;;;;;3.20;2.90;;;9.30;99.90;;;;;;5034745;28;21223;-52
2023/04/19 01:20:39;;;;;;;3.93;3.63;;;9.30;99.90;;;;;;5033167;28;20451;-54
2023/04/19 01:23:10;;;;;;;5.43;3.53;;;9.30;99.90;;;;;;5032861;28;20870;-52
2023/04/19 01:25:37;;;;;;;3.67;3.00;;;9.30;99.90;;;;;;5032759;28;21036;-52
2023/04/19 01:28:05;;;;;;;4.00;3.53;;;9.30;99.90;;;;;;5033866;28;20474;-52
2023/04/19 01:30:32;;;;;;;4.10;3.27;;;9.20;99.90;;;;;;5033054;28;20932;-53
2023/04/19 01:32:59;;;;;;;3.50;2.53;;;9.00;99.90;;;;;;5032727;28;20446;-51
2023/04/19 01:35:26;;;;;;;3.50;2.80;;;9.10;99.90;;;;;;5033510;28;20862;-52
2023/04/19 01:37:55;;;;;;;3.23;2.83;;;9.10;99.90;;;;;;5032810;28;20471;-52
2023/04/19 01:40:24;;;;;;;4.37;3.03;;;8.90;99.90;;;;;;5033122;28;20446;-52
2023/04/19 01:42:51;;;;;;;4.53;3.20;;;8.90;99.90;;;;;;5032965;28;20442;-52
2023/04/19 01:45:18;;;;;;;3.83;3.27;;;8.80;99.90;;;;;;5032840;28;20573;-52
2023/04/19 01:47:45;;;;;;;5.50;3.70;;;8.80;99.90;;;;;;5033760;28;20505;-52
2023/04/19 01:50:12;;;;;;;3.87;3.10;;;8.90;99.90;;;;;;5032342;28;20447;-52
2023/04/19 01:52:39;;;;;;;3.77;3.13;;;9.00;99.90;;;;;;5032761;28;20870;-52
2023/04/19 01:55:06;;;;;;;3.20;2.90;;;9.00;99.90;;;;;;5032846;28;20470;-53
2023/04/19 01:57:35;;;;;;;6.37;3.77;;;9.00;99.90;;;;;;5032170;28;20483;-52
2023/04/19 02:00:02;;;;;;;3.40;3.00;;;9.10;99.90;;;;;;5032691;28;20533;-52
2023/04/19 02:02:29;;;;;;;4.40;3.13;;;9.10;99.90;;;;;;5031814;28;20943;-52
2023/04/19 02:04:57;;;;;;;3.60;3.03;;;9.20;99.90;;;;;;5032257;28;20700;-51
2023/04/19 02:07:23;;;;;;;4.97;3.50;;;9.10;99.90;;;;;;5031681;28;20889;-54
2023/04/19 02:09:50;;;;;;;3.30;3.00;;;9.20;99.90;;;;;;5032161;28;21016;-52
2023/04/19 02:12:17;;;;;;;3.87;3.40;;;9.20;99.90;;;;;;5032214;28;20515;-52
2023/04/19 02:14:45;;;;;;;3.53;3.23;;;9.20;99.90;;;;;;5031758;28;20522;-54
2023/04/19 02:17:12;;;;;;;3.57;2.90;;;9.20;99.90;;;;;;5032042;28;20540;-53
2023/04/19 02:19:39;;;;;;;3.80;2.97;;;9.20;99.90;;;;;;5032271;28;20505;-52
2023/04/19 02:22:06;;;;;;;6.03;3.63;;;9.10;99.90;;;;;;5031959;28;20478;-54
2023/04/19 02:24:33;;;;;;;3.43;3.00;;;9.00;99.90;;;;;;5032552;28;20514;-52
2023/04/19 02:27:00;;;;;;;5.97;3.87;;;9.10;99.90;;;;;;5031837;28;20490;-52
2023/04/19 02:29:27;;;;;;;4.17;3.30;;;9.10;99.90;;;;;;5031673;28;21073;-53
2023/04/19 02:31:56;;;;;;;4.97;4.10;;;9.10;99.90;;;;;;5031972;28;20443;-52
2023/04/19 02:34:22;;;;;;;4.40;3.27;;;9.10;99.90;;;;;;5031638;28;21013;-52
2023/04/19 02:36:49;;;;;;;6.07;3.20;;;9.10;99.90;;;;;;5036902;28;20549;-53
2023/04/19 02:39:16;;;;;;;4.23;3.20;;;9.10;99.90;;;;;;5051634;28;20541;-52
2023/04/19 02:41:43;;;;;;;4.40;3.50;;;9.10;99.90;;;;;;5051625;28;20444;-53
2023/04/19 02:44:11;;;;;;;4.43;2.63;;;9.20;99.90;;;;;;5051737;28;20587;-52
2023/04/19 02:46:38;;;;;;;3.50;3.10;;;9.20;99.90;;;;;;5047667;28;20862;-52
2023/04/19 02:49:06;;;;;;;3.80;3.40;;;9.20;99.90;;;;;;5031584;28;20486;-52
2023/04/19 02:51:33;;;;;;;3.10;2.80;;;9.20;99.90;;;;;;5031769;28;20537;-52
2023/04/19 02:54:00;;;;;;;4.23;3.10;;;9.20;99.90;;;;;;5031333;28;20486;-52
2023/04/19 02:56:27;;;;;;;3.70;3.30;;;9.20;99.90;;;;;;5031125;28;20548;-52
2023/04/19 02:58:55;;;;;;;3.60;3.20;;;9.00;99.90;;;;;;5031473;28;20499;-52
2023/04/19 03:01:22;;;;;;;3.60;3.00;;;8.90;99.90;;;;;;5030446;28;20454;-52
2023/04/19 03:03:49;;;;;;;4.10;3.70;;;8.90;99.90;;;;;;5031025;28;20815;-52
2023/04/19 03:06:18;;;;;;;4.23;3.73;;;8.80;99.90;;;;;;5031447;28;20504;-53
2023/04/19 03:08:45;;;;;;;4.50;3.10;;;8.70;99.90;;;;;;5031611;28;20495;-54
2023/04/19 03:11:12;;;;;;;3.37;3.07;;;8.60;99.90;;;;;;5031280;28;20541;-52
2023/04/19 03:13:39;;;;;;;4.43;3.83;;;8.40;99.90;;;;;;5030608;28;20470;-52
2023/04/19 03:16:07;;;;;;;3.37;3.07;;;8.50;99.90;;;;;;5031169;28;20481;-51
2023/04/19 03:18:35;;;;;;;4.80;3.30;;;8.60;99.90;;;;;;5049513;28;20877;-52
2023/04/19 03:21:02;;;;;;;6.53;3.70;;;8.60;99.90;;;;;;5050961;28;20446;-52
2023/04/19 03:23:30;;;;;;;3.97;3.57;;;8.70;99.90;;;;;;5051038;28;20528;-52
2023/04/19 03:25:57;;;;;;;5.70;3.67;;;8.90;99.90;;;;;;5050996;28;20767;-52
2023/04/19 03:28:24;;;;;;;4.43;3.37;;;9.00;99.90;;;;;;5050331;28;20497;-52
2023/04/19 03:30:51;;;;;;;4.00;3.10;;;9.10;99.90;;;;;;5051182;28;20474;-52
2023/04/19 03:33:18;;;;;;;3.53;3.23;;;9.10;99.90;;;;;;5050929;28;20638;-54
2023/04/19 03:35:44;;;;;;;4.17;3.47;;;9.00;99.90;;;;;;5050642;28;20521;-51
2023/04/19 03:38:11;;;;;;;4.57;3.40;;;9.10;99.90;;;;;;5050628;28;20538;-52
2023/04/19 03:40:40;;;;;;;3.83;3.30;;;9.00;99.90;;;;;;5050833;28;21172;-53
2023/04/19 03:43:07;;;;;;;3.80;3.50;;;8.90;99.90;;;;;;5050683;28;20894;-52
2023/04/19 03:45:33;;;;;;;6.67;3.97;;;8.80;99.90;;;;;;5050460;28;20569;-52
2023/04/19 03:48:00;;;;;;;5.43;4.13;;;8.90;99.90;;;;;;5049758;28;20523;-53
2023/04/19 03:50:27;;;;;;;4.00;3.70;;;9.00;99.90;;;;;;5050950;28;20477;-52
2023/04/19 03:52:54;;;;;;;5.40;3.90;;;9.00;99.90;;;;;;5049928;28;20895;-52
2023/04/19 03:55:21;;;;;;;4.70;3.77;;;9.00;99.90;;;;;;5050508;28;20472;-52
2023/04/19 03:57:49;;;;;;;4.67;4.13;;;9.00;99.90;;;;;;5050155;28;20497;-52
2023/04/19 04:00:17;;;;;;;5.27;4.77;;;9.10;99.90;;;;;;5050646;28;20469;-52
2023/04/19 04:02:44;;;;;;;4.83;4.40;;;9.10;99.90;;;;;;5050215;28;20525;-52
2023/04/19 04:05:10;;;;;;;4.77;4.17;;;9.00;99.90;;;;;;5030445;28;20502;-52
2023/04/19 04:07:37;;;;;;;6.07;4.30;;;8.90;99.90;;;;;;5030156;28;20490;-52
2023/04/19 04:10:05;;;;;;;5.10;4.60;;;8.70;99.90;;;;;;5030642;28;20534;-52
2023/04/19 04:12:32;;;;;;;4.83;4.37;;;8.80;99.90;;;;;;5032313;28;20486;-53
2023/04/19 04:15:01;;;;;;;5.70;4.60;;;8.80;99.90;;;;;;5034201;28;20470;-52
2023/04/19 04:17:27;;;;;;;6.47;5.87;;;8.90;99.90;;;;;;5043907;28;20437;-53
2023/04/19 04:19:54;;;;;;;7.10;5.80;;;8.90;99.90;;;;;;5054480;28;20469;-52
2023/04/19 04:22:21;;;;;;;9.47;7.77;;;8.90;99.90;;;;;;5054209;28;20480;-52
2023/04/19 04:24:48;;;;;;;11.20;10.13;;;9.00;99.90;;;;;;5053854;28;20564;-52
2023/04/19 04:27:19;;;;;;;6.50;5.67;;;9.00;99.90;;;;;;5046830;28;20458;-52
2023/04/19 04:29:46;;;;;;;5.90;5.30;;;8.90;99.90;;;;;;5054114;28;20504;-52
2023/04/19 04:32:16;;;;;;;5.90;5.30;;;8.90;99.90;;;;;;5054273;28;20452;-52
2023/04/19 04:34:44;;;;;;;8.37;7.47;;;9.00;99.90;;;;;;5054154;28;20457;-52
2023/04/19 04:37:12;;;;;;;7.10;6.40;;;9.00;99.90;;;;;;5045126;28;20497;-53
2023/04/19 04:39:39;;;;;;;8.10;5.70;;;8.90;99.90;;;;;;5036864;28;20833;-52
2023/04/19 04:42:07;;;;;;;8.10;5.63;;;9.00;99.90;;;;;;5048407;28;20581;-52
2023/04/19 04:44:35;;;;;;;7.50;5.33;;;9.00;99.90;;;;;;5052332;28;20488;-52
2023/04/19 04:47:01;;;;;;;6.83;5.27;;;8.90;99.90;;;;;;5046840;28;20963;-52
2023/04/19 04:49:30;;;;;;;6.70;6.00;;;9.00;99.90;;;;;;5048818;28;20490;-52
2023/04/19 04:51:57;;;;;;;7.10;6.40;;;9.00;99.90;;;;;;5047091;28;20442;-53
2023/04/19 04:54:24;;;;;;;6.13;5.37;;;9.00;99.90;;;;;;5045930;28;20548;-52
2023/04/19 04:56:51;;;;;;;7.47;6.67;;;9.00;99.90;;;;;;5047888;28;20662;-52
2023/04/19 04:59:18;;;;;;;7.10;6.33;;;9.00;99.90;;;;;;5046478;28;20560;-54
2023/04/19 05:01:45;;;;;;;6.57;5.97;;;9.00;99.90;;;;;;5047331;28;20465;-53
2023/04/19 05:04:12;;;;;;;6.53;5.93;;;9.10;99.90;;;;;;5050953;28;20548;-53
2023/04/19 05:06:40;;;;;;;7.40;6.27;;;9.10;99.90;;;;;;5050675;28;20520;-53
2023/04/19 05:09:07;;;;;;;8.90;7.63;;;9.00;99.90;;;;;;5058887;28;20457;-53
2023/04/19 05:11:34;;;;;;;7.63;6.83;;;9.00;99.90;;;;;;5047219;28;21023;-54
2023/04/19 05:14:01;;;;;;;8.10;7.30;;;9.00;99.90;;;;;;5043598;28;20517;-53
2023/04/19 05:16:28;;;;;;;10.43;7.30;;;9.00;99.90;;;;;;5046280;28;21400;-53
2023/04/19 05:18:55;;;;;;;8.10;7.13;;;9.00;99.90;;;;;;5049737;28;20485;-53
2023/04/19 05:21:22;;;;;;;10.93;6.60;;;9.00;99.90;;;;;;5046018;28;20470;-53
2023/04/19 05:23:52;;;;;;;11.03;6.30;;;9.00;99.90;;;;;;5045808;28;20952;-53
2023/04/19 05:26:19;;;;;;;6.83;6.10;;;9.00;99.90;;;;;;5048632;28;20504;-54
2023/04/19 05:28:46;;;;;;;6.87;5.63;;;9.00;99.90;;;;;;5049428;28;20523;-54
2023/04/19 05:31:13;;;;;;;8.93;8.00;;;9.00;99.90;;;;;;5050035;28;20470;-53
2023/04/19 05:33:40;;;;;;;7.63;6.83;;;9.00;99.90;;;;;;5040738;28;20480;-53
2023/04/19 05:36:07;;;;;;;7.37;6.63;;;9.10;99.90;;;;;;5052511;28;20987;-52
2023/04/19 05:38:34;;;;;;;9.10;7.23;;;8.90;99.90;;;;;;5043137;28;20493;-53
2023/04/19 05:41:03;;;;;;;9.53;6.63;;;8.90;99.90;;;;;;5046016;28;21108;-53
2023/04/19 05:43:30;;;;;;;7.47;6.70;;;8.90;99.90;;;;;;5044332;28;20443;-53
2023/04/19 05:45:57;;;;;;;9.57;7.40;;;9.00;99.90;;;;;;5047280;28;21050;-54
2023/04/19 05:48:24;;;;;;;6.70;6.00;;;9.00;99.90;;;;;;5050875;28;20811;-55
2023/04/19 05:50:53;;;;;;;8.97;7.17;;;9.10;99.90;;;;;;5049334;28;20939;-54
2023/04/19 05:53:20;;;;;;;7.70;6.00;;;9.10;99.90;;;;;;5050788;28;20437;-53
2023/04/19 05:55:49;;;;;;;8.90;6.60;;;9.10;99.90;;;;;;5049525;28;20477;-52
2023/04/19 05:58:17;;;;;;;10.13;7.97;;;9.10;99.90;;;;;;5047022;28;20469;-53
2023/04/19 06:00:44;;;;;;;8.33;7.30;;;9.10;99.90;;;;;;5047555;28;20927;-54
2023/04/19 06:03:11;;;;;;;9.33;7.57;;;9.10;99.90;;;;;;5047031;28;20525;-53
2023/04/19 06:05:39;;;;;;;9.33;8.27;;;9.10;99.90;;;;;;5043695;28;20509;-53
2023/04/19 06:08:08;;;;;;;7.97;7.17;;;9.10;99.90;;;;;;5049275;28;20550;-53
2023/04/19 06:10:35;;;;;;;9.23;7.87;;;9.10;99.90;;;;;;5045880;28;20536;-55
2023/04/19 06:13:02;;;;;;;8.70;7.77;;;9.10;99.90;;;;;;5051496;28;20896;-53
2023/04/19 06:15:30;;;;;;;9.17;7.97;;;9.10;99.90;;;;;;5052247;28;20517;-54
2023/04/19 06:17:57;;;;;;;10.00;7.83;;;9.10;99.90;;;;;;5052102;28;20996;-53
2023/04/19 06:20:24;;;;;;;9.33;7.67;;;9.10;99.90;;;;;;5049390;28;21028;-53
2023/04/19 06:22:51;;;;;;;10.57;8.70;;;9.10;99.90;;;;;;5051498;28;20506;-53
2023/04/19 06:25:18;;;;;;;10.53;9.43;;;9.10;99.90;;;;;;5051899;28;20565;-53
2023/04/19 06:27:45;;;;;;;9.60;8.60;;;9.00;99.90;;;;;;5049840;28;21061;-53
2023/04/19 06:30:12;;;;;;;11.47;8.37;;;9.00;99.90;;;;;;5051979;28;20798;-54
2023/04/19 06:32:40;;;;;;;10.23;8.60;;;9.00;99.90;;;;;;5051605;28;20532;-53
2023/04/19 06:35:08;;;;;;;9.17;8.07;;;8.90;99.90;;;;;;5050433;28;20442;-53
2023/04/19 06:37:35;;;;;;;9.50;7.97;;;9.00;99.90;;;;;;5051668;28;20438;-53
2023/04/19 06:40:03;;;;;;;9.27;8.00;;;8.80;99.90;;;;;;5051611;28;20536;-53
2023/04/19 06:42:30;;;;;;;9.07;7.70;;;8.80;99.90;;;;;;5051347;28;20444;-54
2023/04/19 06:44:57;;;;;;;10.93;9.00;;;8.80;99.90;;;;;;5052065;28;20907;-53
2023/04/19 06:47:24;;;;;;;11.53;9.53;;;8.90;99.90;;;;;;5051389;28;20521;-53
2023/04/19 06:49:52;;;;;;;10.97;9.73;;;8.90;99.90;;;;;;5051383;28;20857;-53
2023/04/19 06:52:19;;;;;;;13.43;10.80;;;8.90;99.90;;;;;;5050661;28;20484;-53
2023/04/19 06:54:48;;;;;;;11.23;10.07;;;8.90;99.90;;;;;;5051867;28;20548;-53
2023/04/19 06:57:15;;;;;;;12.43;10.77;;;9.00;99.90;;;;;;5051345;28;21128;-52
2023/04/19 06:59:42;;;;;;;11.80;10.10;;;9.00;99.90;;;;;;5051226;28;20533;-53
2023/04/19 07:02:09;;;;;;;12.03;8.97;;;9.10;99.90;;;;;;5051311;28;20546;-52
2023/04/19 07:04:36;;;;;;;11.27;10.10;;;9.10;99.90;;;;;;5051088;28;20492;-53
2023/04/19 07:07:04;;;;;;;10.13;8.73;;;9.10;99.90;;;;;;5050949;28;20513;-53
2023/04/19 07:09:31;;;;;;;12.63;10.73;;;9.00;99.90;;;;;;5050954;28;20468;-53
2023/04/19 07:11:58;;;;;;;13.13;10.53;;;9.00;99.90;;;;;;5051117;28;20814;-53
2023/04/19 07:14:25;;;;;;;11.07;9.80;;;9.00;99.90;;;;;;5050647;28;20541;-54
2023/04/19 07:16:53;;;;;;;11.67;10.33;;;8.90;99.90;;;;;;5051213;28;20526;-52
2023/04/19 07:19:21;;;;;;;11.00;9.10;;;8.90;99.90;;;;;;5050549;28;20465;-53
2023/04/19 07:21:48;;;;;;;11.70;10.50;;;8.80;99.90;;;;;;5050927;28;20920;-52
2023/04/19 07:24:17;;;;;;;11.20;9.73;;;8.90;99.90;;;;;;5050723;28;21027;-54
2023/04/19 07:26:44;;;;;;;10.03;8.93;;;8.90;99.90;;;;;;5051022;28;20568;-53
2023/04/19 07:29:11;;;;;;;11.87;10.20;;;9.00;99.90;;;;;;5050429;28;20489;-53
2023/04/19 07:31:38;;;;;;;14.37;11.00;;;9.00;99.90;;;;;;5051044;28;20964;-53
2023/04/19 07:34:05;;;;;;;14.60;10.50;;;9.00;99.90;;;;;;5050993;28;20481;-53
2023/04/19 07:36:33;;;;;;;13.07;11.63;;;9.00;99.90;;;;;;5050758;28;20452;-53
2023/04/19 07:39:00;;;;;;;12.37;10.23;;;9.10;99.90;;;;;;5050699;28;20501;-53
2023/04/19 07:41:28;;;;;;;12.07;10.73;;;9.20;99.90;;;;;;5050937;28;20595;-53
2023/04/19 07:43:55;;;;;;;15.47;12.20;;;9.20;99.90;;;;;;5050541;28;20485;-55
2023/04/19 07:46:22;;;;;;;12.90;11.13;;;9.20;99.90;;;;;;5051229;28;20570;-53
2023/04/19 07:48:49;;;;;;;10.67;9.67;;;9.10;99.90;;;;;;5054685;28;20461;-53
2023/04/19 07:51:18;;;;;;;11.27;9.90;;;9.10;99.90;;;;;;5055002;28;20446;-54
2023/04/19 07:53:46;;;;;;;12.10;9.90;;;9.10;99.90;;;;;;5053936;28;20528;-53
2023/04/19 07:56:14;;;;;;;11.57;10.37;;;9.20;99.90;;;;;;5054483;28;21003;-53
2023/04/19 07:58:42;;;;;;;12.50;11.20;;;9.20;99.90;;;;;;5054690;28;20473;-54
2023/04/19 08:01:10;;;;;;;14.03;11.83;;;9.30;99.90;;;;;;5054836;28;20535;-54
2023/04/19 08:03:37;;;;;;;16.73;11.50;;;9.30;99.90;;;;;;5054598;28;20441;-54
2023/04/19 08:06:06;;;;;;;13.03;11.73;;;9.20;99.90;;;;;;5054414;28;20993;-53
2023/04/19 08:08:33;;;;;;;13.00;11.53;;;9.10;99.90;;;;;;5054492;28;20544;-54
2023/04/19 08:11:01;;;;;;;12.63;10.57;;;9.00;99.90;;;;;;5054344;28;20547;-53
2023/04/19 08:13:27;;;;;;;15.37;10.70;;;9.10;99.90;;;;;;5054169;28;20455;-53
2023/04/19 08:15:56;;;;;;;13.33;10.90;;;9.10;99.90;;;;;;5054309;28;20892;-54
2023/04/19 08:18:23;;;;;;;14.10;11.13;;;9.30;99.90;;;;;;5054254;28;20548;-53
2023/04/19 08:20:50;;;;;;;15.33;12.27;;;9.30;99.90;;;;;;5053471;28;20937;-53
2023/04/19 08:23:17;;;;;;;15.40;12.50;;;9.30;99.90;;;;;;5054183;28;20473;-53
2023/04/19 08:25:44;;;;;;;15.93;11.47;;;9.40;99.90;;;;;;5049703;23;20572;-48
2023/04/19 08:28:12;;;;;;;14.00;11.53;;;9.40;99.90;;;;;;5012517;28;20531;-48
2023/04/19 08:30:40;;;;;;;14.90;11.70;;;9.50;99.90;;;;;;5014700;28;20458;-49
2023/04/19 08:33:08;;;;;;;13.60;11.77;;;9.30;99.90;;;;;;5014660;28;20537;-49
2023/04/19 08:35:35;;;;;;;12.90;11.00;;;9.30;99.90;;;;;;5014639;28;20555;-49
2023/04/19 08:38:03;;;;;;;13.53;11.03;;;9.40;99.90;;;;;;5014523;28;20450;-48
2023/04/19 08:40:30;;;;;;;13.63;12.07;;;9.50;99.90;;;;;;5014817;28;20547;-46
2023/04/19 08:42:57;;;;;;;12.43;11.20;;;9.40;99.90;;;;;;5014371;28;20535;-48
2023/04/19 08:45:27;;;;;;;13.00;11.33;;;9.50;99.90;;;;;;5014353;28;20506;-47
2023/04/19 08:47:55;;;;;;;12.67;10.27;;;9.50;99.90;;;;;;5014498;28;20467;-48
2023/04/19 08:50:24;;;;;;;14.47;10.40;;;9.50;99.90;;;;;;5014230;28;20533;-47
2023/04/19 08:52:51;;;;;;;13.30;11.03;;;9.60;99.90;;;;;;5013742;28;21006;-47
2023/04/19 08:55:18;;;;;;;12.20;11.00;;;9.60;99.90;;;;;;5014019;28;20550;-48
2023/04/19 08:57:45;;;;;;;10.30;8.90;;;9.50;99.90;;;;;;5013448;28;20444;-47
2023/04/19 09:00:13;;;;;;;11.40;10.30;;;9.60;99.90;;;;;;5013234;28;20999;-49
2023/04/19 09:02:48;;;;;;;12.70;10.60;;;9.80;99.90;;;;;;5012342;28;20444;-49
2023/04/19 09:05:16;;;;;;;13.30;10.60;;;9.80;99.90;;;;;;5033142;28;20541;-48
2023/04/19 09:07:45;;;;;;;13.87;11.40;;;9.80;99.90;;;;;;5027912;28;20516;-48
2023/04/19 09:10:13;;;;;;;12.00;10.70;;;9.80;99.90;;;;;;5013210;28;20478;-47
2023/04/19 09:12:41;;;;;;;11.53;10.00;;;9.70;99.90;;;;;;5012293;28;20480;-47
2023/04/19 09:15:09;;;;;;;17.80;10.30;;;9.60;99.90;;;;;;5012675;28;20570;-48
2023/04/19 09:17:37;;;;;;;10.03;9.00;;;9.60;99.90;;;;;;5012013;28;20932;-50
2023/04/19 09:20:05;;;;;;;11.70;9.30;;;9.60;99.90;;;;;;5011595;28;20530;-48
2023/04/19 09:22:33;;;;;;;11.57;8.80;;;9.70;99.90;;;;;;5013259;28;20524;-49
2023/04/19 09:25:01;;;;;;;12.70;8.60;;;9.90;99.90;;;;;;5013282;28;20534;-47
2023/04/19 09:27:29;;;;;;;8.93;8.00;;;9.80;99.90;;;;;;5012842;28;20568;-48
2023/04/19 09:29:56;;;;;;;9.27;8.10;;;9.90;99.90;;;;;;5012476;28;20519;-48
2023/04/19 09:32:23;;;;;;;8.80;7.80;;;9.90;99.90;;;;;;5013364;28;20530;-48
2023/04/19 09:34:55;;;;;;;8.90;7.40;;;10.00;99.90;;;;;;5013201;28;20501;-48
2023/04/19 09:37:22;;;;;;;9.90;8.90;;;10.10;99.90;;;;;;5013417;28;20482;-49
2023/04/19 09:39:50;;;;;;;8.60;7.80;;;10.10;99.90;;;;;;5013634;28;20481;-50
2023/04/19 09:42:19;;;;;;;9.00;8.10;;;10.10;99.90;;;;;;5013536;28;20450;-48
2023/04/19 09:44:58;;;;;;;9.97;8.97;;;10.20;99.90;;;;;;5012794;28;20495;-49
2023/04/19 09:47:26;;;;;;;12.30;9.00;;;10.30;99.90;;;;;;5013036;28;20516;-48
2023/04/19 09:50:14;;;;;;;9.70;8.70;;;10.20;99.90;;;;;;5013390;28;20474;-48
2023/04/19 09:52:41;;;;;;;9.53;8.20;;;10.20;99.90;;;;;;5008006;28;20822;-48
2023/04/19 09:55:08;;;;;;;8.93;8.00;;;10.20;99.90;;;;;;5013003;28;20499;-48
2023/04/19 09:57:36;;;;;;;10.10;8.73;;;10.30;99.90;;;;;;5013016;28;20498;-47
2023/04/19 10:00:08;;;;;;;10.40;7.77;;;10.40;99.90;;;;;;5011825;28;20970;-52
2023/04/19 10:02:35;;;;;;;10.93;8.23;;;10.50;99.90;;;;;;5011868;28;20450;-49
2023/04/19 10:05:04;;;;;;;8.90;8.00;;;10.50;99.90;;;;;;5013045;28;20488;-48
2023/04/19 10:07:31;;;;;;;9.47;7.57;;;10.60;99.90;;;;;;5012224;28;21004;-50
2023/04/19 10:09:59;;;;;;;9.17;8.20;;;10.60;99.90;;;;;;5011817;28;20478;-48
2023/04/19 10:12:27;;;;;;;8.33;7.07;;;10.50;99.90;;;;;;4999787;28;20449;-48
2023/04/19 10:14:59;;;;;;;9.47;7.67;;;10.40;99.90;;;;;;5009659;28;20509;-49
2023/04/19 10:17:27;;;;;;;8.27;7.43;;;10.50;99.90;;;;;;5003897;28;20559;-48
2023/04/19 10:20:02;;;;;;;8.30;6.83;;;10.60;99.90;;;;;;5011206;28;20480;-47
2023/04/19 10:22:29;;;;;;;9.10;7.43;;;10.50;99.90;;;;;;5004648;28;20484;-48
2023/04/19 10:25:10;;;;;;;9.07;8.07;;;10.50;99.90;;;;;;5011481;28;20556;-48
2023/04/19 10:27:37;;;;;;;13.70;11.60;;;10.50;99.90;;;;;;5012504;28;20484;-49
2023/04/19 10:30:16;;;;;;;11.23;9.17;;;10.70;99.90;;;;;;5012371;28;20469;-48
2023/04/19 10:32:52;;;;;;;9.17;8.27;;;10.80;99.90;;;;;;5012484;28;20524;-47
2023/04/19 10:35:20;;;;;;;9.20;7.20;;;10.80;99.90;;;;;;5010313;28;20989;-48
2023/04/19 10:38:09;;;;;;;7.97;7.10;;;10.80;99.90;;;;;;5011163;28;20472;-48
2023/04/19 10:40:55;;;;;;;8.83;7.93;;;10.90;99.90;;;;;;5007090;28;20508;-47
2023/04/19 10:43:23;;;;;;;8.13;7.33;;;11.00;99.90;;;;;;5010548;28;20449;-48
2023/04/19 10:45:52;;;;;;;9.37;6.57;;;11.20;99.90;;;;;;5008942;28;20529;-49
2023/04/19 10:48:33;;;;;;;9.30;6.80;;;11.30;99.90;;;;;;5010586;28;20564;-50
2023/04/19 10:51:00;;;;;;;9.50;6.10;;;11.20;99.90;;;;;;5006525;28;20936;-48
2023/04/19 10:53:55;;;;;;;8.57;6.77;;;11.10;99.90;;;;;;5009027;28;20469;-48
2023/04/19 10:56:40;;;;;;;6.67;5.77;;;11.10;99.90;;;;;;5011428;28;20545;-48
2023/04/19 10:59:20;;;;;;;6.60;5.63;;;11.20;99.90;;;;;;4999859;28;20545;-48
2023/04/19 11:01:53;;;;;;;6.73;6.03;;;11.30;99.90;;;;;;5010831;28;21003;-47
2023/04/19 11:04:25;;;;;;;6.77;6.07;;;11.40;99.90;;;;;;5011837;28;20883;-48
2023/04/19 11:07:03;;;;;;;5.33;4.83;;;11.50;99.90;;;;;;5011639;28;20493;-48
2023/04/19 11:09:33;;;;;;;5.33;4.50;;;11.40;99.90;;;;;;5012100;28;20482;-46
2023/04/19 11:12:03;;;;;;;6.43;5.00;;;11.60;99.90;;;;;;5010671;28;20525;-48
2023/04/19 11:14:32;;;;;;;7.03;5.30;;;11.80;99.90;;;;;;5010549;28;20750;-46
2023/04/19 11:17:03;;;;;;;5.50;5.00;;;11.70;99.90;;;;;;5010121;28;20445;-48
2023/04/19 11:19:30;;;;;;;6.90;6.07;;;11.80;99.90;;;;;;5010043;28;21011;-49
2023/04/19 11:21:59;;;;;;;5.93;5.33;;;11.70;99.90;;;;;;5008929;28;20573;-47
2023/04/19 11:24:26;;;;;;;7.57;6.03;;;11.70;99.90;;;;;;5009462;28;20502;-49
2023/04/19 11:26:56;;;;;;;6.53;5.90;;;11.70;99.90;;;;;;5010638;28;20568;-48
2023/04/19 11:29:23;;;;;;;7.27;6.50;;;11.70;99.90;;;;;;5011009;28;20453;-47
2023/04/19 11:31:50;;;;;;;7.37;5.97;;;11.40;99.90;;;;;;5010757;28;20474;-48
2023/04/19 11:34:22;;;;;;;10.77;6.63;;;11.20;99.90;;;;;;5010978;28;20449;-50
2023/04/19 11:36:50;;;;;;;6.40;5.10;;;11.00;99.90;;;;;;5011262;28;20520;-47
2023/04/19 11:39:17;;;;;;;5.17;4.60;;;11.10;99.90;;;;;;5016283;28;20533;-49
2023/04/19 11:41:46;;;;;;;6.37;4.77;;;11.00;99.90;;;;;;5030888;28;20478;-49
2023/04/19 11:44:18;;;;;;;6.77;5.23;;;10.80;99.90;;;;;;5030824;28;20961;-47
2023/04/19 11:46:59;;;;;;;5.20;4.67;;;10.80;99.90;;;;;;5030471;28;20479;-48
2023/04/19 11:49:29;;;;;;;5.87;4.60;;;10.80;99.90;;;;;;5031371;28;20476;-47
2023/04/19 11:51:59;;;;;;;4.93;4.53;;;10.70;99.90;;;;;;5030843;28;20434;-49
2023/04/19 11:54:27;;;;;;;5.23;4.40;;;10.80;99.90;;;;;;5030749;28;20473;-48
2023/04/19 11:56:58;;;;;;;5.07;4.57;;;10.80;99.90;;;;;;5030744;28;20545;-47
2023/04/19 11:59:25;;;;;;;5.13;4.63;;;10.90;99.90;;;;;;5030769;28;20447;-49
2023/04/19 12:01:52;;;;;;;3.50;3.10;;;10.80;99.90;;;;;;5030573;28;20866;-46
2023/04/19 12:04:20;;;;;;;4.00;3.37;;;10.80;99.90;;;;;;5029993;28;20481;-47
2023/04/19 12:06:58;;;;;;;3.60;3.30;;;10.70;99.90;;;;;;5030213;28;20467;-49
2023/04/19 12:09:24;;;;;;;3.57;3.07;;;10.90;99.90;;;;;;5031325;28;20454;-48
2023/04/19 12:11:52;;;;;;;3.67;3.23;;;10.90;99.90;;;;;;5030610;28;20900;-48
2023/04/19 12:14:21;;;;;;;4.13;3.40;;;11.10;99.90;;;;;;5030402;28;20534;-46
2023/04/19 12:17:07;;;;;;;3.13;2.50;;;11.20;99.90;;;;;;5024507;28;20453;-47
2023/04/19 12:19:36;;;;;;;2.53;2.30;;;11.20;99.90;;;;;;5010453;28;20936;-48
2023/04/19 12:22:12;;;;;;;3.03;2.73;;;11.20;99.90;;;;;;5010634;28;20440;-50
2023/04/19 12:24:40;;;;;;;2.83;2.53;;;11.30;99.90;;;;;;5010881;28;20546;-49
2023/04/19 12:27:07;;;;;;;3.60;2.80;;;11.30;99.90;;;;;;5010259;28;20473;-47
2023/04/19 12:29:34;;;;;;;3.50;3.10;;;11.30;99.90;;;;;;5010334;28;20477;-48
2023/04/19 12:32:02;;;;;;;3.53;2.47;;;11.30;99.90;;;;;;5011316;28;20449;-48
2023/04/19 12:34:29;;;;;;;3.50;2.77;;;11.30;99.90;;;;;;5014275;28;20473;-48
2023/04/19 12:36:56;;;;;;;3.53;3.23;;;11.40;99.90;;;;;;5014280;28;20522;-49
2023/04/19 12:39:25;;;;;;;4.60;3.03;;;11.30;99.90;;;;;;5014412;28;20484;-48
2023/04/19 12:41:51;;;;;;;2.60;2.40;;;11.30;99.90;;;;;;5014471;28;20445;-48
2023/04/19 12:44:18;;;;;;;3.30;2.97;;;11.30;99.90;;;;;;5013757;28;20488;-50
2023/04/19 12:46:45;;;;;;;2.50;2.20;;;11.30;99.90;;;;;;5014157;28;20824;-47
2023/04/19 12:49:12;;;;;;;3.80;2.90;;;11.30;99.90;;;;;;5014407;28;20537;-48
2023/04/19 12:51:41;;;;;;;3.80;2.93;;;11.40;99.90;;;;;;5014525;28;20481;-48
2023/04/19 12:54:08;;;;;;;3.20;2.70;;;11.30;99.90;;;;;;5014251;28;20445;-47
2023/04/19 12:56:36;;;;;;;3.20;2.90;;;11.20;99.90;;;;;;5014136;28;20501;-47